sensor_id;sensor_type;location;lat;lon;timestamp;P1;durP1;ratioP1;P2;durP2;ratioP2
72117;SDS011;59992;47.490;8.736;2022-08-21T00:00:51;6.40;;;1.90;;
72117;SDS011;59992;47.490;8.736;2022-08-21T00:03:42;4.20;;;2.00;;
72117;SDS011;59992;47.490;8.736;2022-08-21T00:06:33;3.00;;;2.00;;
72117;SDS011;59992;47.490;8.736;2022-08-21T00:09:25;4.60;;;1.90;;
72117;SDS011;59992;47.490;8.736;2022-08-21T00:12:15;4.80;;;2.50;;
72117;SDS011;59992;47.490;8.736;2022-08-21T00:15:08;4.70;;;2.00;;
72117;SDS011;59992;47.490;8.736;2022-08-21T00:18:01;5.00;;;1.90;;
72117;SDS011;59992;47.490;8.736;2022-08-21T00:20:52;3.00;;;1.90;;
72117;SDS011;59992;47.490;8.736;2022-08-21T00:23:43;3.00;;;1.50;;
72117;SDS011;59992;47.490;8.736;2022-08-21T00:26:34;2.30;;;1.30;;
72117;SDS011;59992;47.490;8.736;2022-08-21T00:29:24;5.20;;;1.60;;
72117;SDS011;59992;47.490;8.736;2022-08-21T00:32:20;2.00;;;1.40;;
72117;SDS011;59992;47.490;8.736;2022-08-21T00:35:13;2.40;;;1.20;;
72117;SDS011;59992;47.490;8.736;2022-08-21T00:38:06;4.60;;;1.10;;
72117;SDS011;59992;47.490;8.736;2022-08-21T00:40:59;2.00;;;1.00;;
72117;SDS011;59992;47.490;8.736;2022-08-21T00:43:52;2.10;;;1.00;;
72117;SDS011;59992;47.490;8.736;2022-08-21T00:46:43;4.50;;;1.10;;
72117;SDS011;59992;47.490;8.736;2022-08-21T00:49:34;4.40;;;1.30;;
72117;SDS011;59992;47.490;8.736;2022-08-21T00:52:26;1.90;;;1.30;;
72117;SDS011;59992;47.490;8.736;2022-08-21T00:55:20;2.00;;;0.80;;
72117;SDS011;59992;47.490;8.736;2022-08-21T00:58:24;4.50;;;1.00;;
72117;SDS011;59992;47.490;8.736;2022-08-21T01:01:18;1.80;;;0.90;;
72117;SDS011;59992;47.490;8.736;2022-08-21T01:04:10;1.80;;;1.20;;
72117;SDS011;59992;47.490;8.736;2022-08-21T01:07:03;4.30;;;1.10;;
72117;SDS011;59992;47.490;8.736;2022-08-21T01:09:54;2.40;;;1.10;;
72117;SDS011;59992;47.490;8.736;2022-08-21T01:12:45;2.10;;;0.80;;
72117;SDS011;59992;47.490;8.736;2022-08-21T01:15:39;3.70;;;0.90;;
72117;SDS011;59992;47.490;8.736;2022-08-21T01:18:32;1.40;;;0.90;;
72117;SDS011;59992;47.490;8.736;2022-08-21T01:21:23;3.20;;;0.90;;
72117;SDS011;59992;47.490;8.736;2022-08-21T01:24:15;1.80;;;0.90;;
72117;SDS011;59992;47.490;8.736;2022-08-21T01:27:06;2.70;;;1.10;;
72117;SDS011;59992;47.490;8.736;2022-08-21T01:29:57;1.70;;;0.90;;
72117;SDS011;59992;47.490;8.736;2022-08-21T01:32:53;3.00;;;0.90;;
72117;SDS011;59992;47.490;8.736;2022-08-21T01:35:44;5.00;;;1.00;;
72117;SDS011;59992;47.490;8.736;2022-08-21T01:38:35;3.50;;;0.90;;
72117;SDS011;59992;47.490;8.736;2022-08-21T01:41:29;2.40;;;0.80;;
72117;SDS011;59992;47.490;8.736;2022-08-21T01:44:21;2.50;;;1.00;;
72117;SDS011;59992;47.490;8.736;2022-08-21T01:47:12;2.50;;;1.20;;
72117;SDS011;59992;47.490;8.736;2022-08-21T01:50:06;4.10;;;1.10;;
72117;SDS011;59992;47.490;8.736;2022-08-21T01:52:59;2.20;;;0.70;;
72117;SDS011;59992;47.490;8.736;2022-08-21T01:55:49;2.00;;;0.90;;
72117;SDS011;59992;47.490;8.736;2022-08-21T01:58:41;2.40;;;1.00;;
72117;SDS011;59992;47.490;8.736;2022-08-21T02:01:35;7.60;;;1.10;;
72117;SDS011;59992;47.490;8.736;2022-08-21T02:04:26;1.80;;;0.90;;
72117;SDS011;59992;47.490;8.736;2022-08-21T02:07:18;2.90;;;0.90;;
72117;SDS011;59992;47.490;8.736;2022-08-21T02:10:09;2.80;;;0.90;;
72117;SDS011;59992;47.490;8.736;2022-08-21T02:13:01;1.70;;;0.90;;
72117;SDS011;59992;47.490;8.736;2022-08-21T02:15:52;2.40;;;1.10;;
72117;SDS011;59992;47.490;8.736;2022-08-21T02:18:43;2.50;;;1.00;;
72117;SDS011;59992;47.490;8.736;2022-08-21T02:21:34;1.50;;;1.00;;
72117;SDS011;59992;47.490;8.736;2022-08-21T02:24:24;3.50;;;1.00;;
72117;SDS011;59992;47.490;8.736;2022-08-21T02:27:15;3.30;;;0.90;;
72117;SDS011;59992;47.490;8.736;2022-08-21T02:30:07;3.70;;;0.90;;
72117;SDS011;59992;47.490;8.736;2022-08-21T02:33:00;2.90;;;1.20;;
72117;SDS011;59992;47.490;8.736;2022-08-21T02:35:51;1.60;;;0.90;;
72117;SDS011;59992;47.490;8.736;2022-08-21T02:38:43;2.90;;;1.00;;
72117;SDS011;59992;47.490;8.736;2022-08-21T02:41:33;1.50;;;1.00;;
72117;SDS011;59992;47.490;8.736;2022-08-21T02:44:24;3.70;;;1.30;;
72117;SDS011;59992;47.490;8.736;2022-08-21T02:47:16;1.40;;;0.80;;
72117;SDS011;59992;47.490;8.736;2022-08-21T02:50:07;3.10;;;0.80;;
72117;SDS011;59992;47.490;8.736;2022-08-21T02:52:58;2.20;;;0.90;;
72117;SDS011;59992;47.490;8.736;2022-08-21T02:55:50;2.40;;;1.00;;
72117;SDS011;59992;47.490;8.736;2022-08-21T02:58:44;1.60;;;0.90;;
72117;SDS011;59992;47.490;8.736;2022-08-21T03:01:36;4.10;;;1.00;;
72117;SDS011;59992;47.490;8.736;2022-08-21T03:04:27;3.50;;;1.20;;
72117;SDS011;59992;47.490;8.736;2022-08-21T03:07:17;2.90;;;0.80;;
72117;SDS011;59992;47.490;8.736;2022-08-21T03:10:08;4.50;;;1.00;;
72117;SDS011;59992;47.490;8.736;2022-08-21T03:12:59;2.50;;;1.10;;
72117;SDS011;59992;47.490;8.736;2022-08-21T03:15:51;5.10;;;1.10;;
72117;SDS011;59992;47.490;8.736;2022-08-21T03:18:41;1.90;;;1.00;;
72117;SDS011;59992;47.490;8.736;2022-08-21T03:21:32;1.60;;;0.90;;
72117;SDS011;59992;47.490;8.736;2022-08-21T03:24:22;2.90;;;0.90;;
72117;SDS011;59992;47.490;8.736;2022-08-21T03:27:14;2.70;;;0.80;;
72117;SDS011;59992;47.490;8.736;2022-08-21T03:30:05;4.30;;;1.10;;
72117;SDS011;59992;47.490;8.736;2022-08-21T03:32:58;2.60;;;0.90;;
72117;SDS011;59992;47.490;8.736;2022-08-21T03:35:49;1.80;;;1.10;;
72117;SDS011;59992;47.490;8.736;2022-08-21T03:38:48;3.20;;;0.80;;
72117;SDS011;59992;47.490;8.736;2022-08-21T03:41:39;2.10;;;1.00;;
72117;SDS011;59992;47.490;8.736;2022-08-21T03:44:30;3.80;;;1.20;;
72117;SDS011;59992;47.490;8.736;2022-08-21T03:47:22;3.10;;;1.40;;
72117;SDS011;59992;47.490;8.736;2022-08-21T03:50:13;2.50;;;0.90;;
72117;SDS011;59992;47.490;8.736;2022-08-21T03:53:05;2.90;;;1.10;;
72117;SDS011;59992;47.490;8.736;2022-08-21T03:55:59;4.00;;;1.30;;
72117;SDS011;59992;47.490;8.736;2022-08-21T03:58:51;2.50;;;1.60;;
72117;SDS011;59992;47.490;8.736;2022-08-21T04:01:50;2.50;;;1.30;;
72117;SDS011;59992;47.490;8.736;2022-08-21T04:04:43;3.30;;;1.10;;
72117;SDS011;59992;47.490;8.736;2022-08-21T04:07:33;4.30;;;1.30;;
72117;SDS011;59992;47.490;8.736;2022-08-21T04:10:25;2.90;;;1.20;;
72117;SDS011;59992;47.490;8.736;2022-08-21T04:13:18;2.60;;;1.30;;
72117;SDS011;59992;47.490;8.736;2022-08-21T04:16:09;3.10;;;1.50;;
72117;SDS011;59992;47.490;8.736;2022-08-21T04:19:00;4.70;;;1.40;;
72117;SDS011;59992;47.490;8.736;2022-08-21T04:21:51;2.20;;;1.40;;
72117;SDS011;59992;47.490;8.736;2022-08-21T04:24:41;3.40;;;1.80;;
72117;SDS011;59992;47.490;8.736;2022-08-21T04:27:32;4.50;;;2.10;;
72117;SDS011;59992;47.490;8.736;2022-08-21T04:30:23;2.50;;;1.70;;
72117;SDS011;59992;47.490;8.736;2022-08-21T04:33:14;3.60;;;1.30;;
72117;SDS011;59992;47.490;8.736;2022-08-21T04:36:05;4.00;;;1.40;;
72117;SDS011;59992;47.490;8.736;2022-08-21T04:38:56;2.70;;;1.50;;
72117;SDS011;59992;47.490;8.736;2022-08-21T04:41:47;3.40;;;1.50;;
72117;SDS011;59992;47.490;8.736;2022-08-21T04:44:38;3.30;;;1.30;;
72117;SDS011;59992;47.490;8.736;2022-08-21T04:47:29;5.00;;;1.60;;
72117;SDS011;59992;47.490;8.736;2022-08-21T04:50:20;5.70;;;1.50;;
72117;SDS011;59992;47.490;8.736;2022-08-21T04:53:16;4.10;;;1.40;;
72117;SDS011;59992;47.490;8.736;2022-08-21T04:56:09;4.70;;;1.30;;
72117;SDS011;59992;47.490;8.736;2022-08-21T04:59:04;5.00;;;1.00;;
72117;SDS011;59992;47.490;8.736;2022-08-21T05:02:00;3.40;;;1.00;;
72117;SDS011;59992;47.490;8.736;2022-08-21T05:04:53;3.10;;;1.00;;
72117;SDS011;59992;47.490;8.736;2022-08-21T05:07:44;2.30;;;0.80;;
72117;SDS011;59992;47.490;8.736;2022-08-21T05:10:35;5.00;;;1.40;;
72117;SDS011;59992;47.490;8.736;2022-08-21T05:13:27;4.30;;;1.60;;
72117;SDS011;59992;47.490;8.736;2022-08-21T05:16:18;3.80;;;1.80;;
72117;SDS011;59992;47.490;8.736;2022-08-21T05:19:08;5.20;;;1.70;;
72117;SDS011;59992;47.490;8.736;2022-08-21T05:22:00;6.70;;;1.90;;
72117;SDS011;59992;47.490;8.736;2022-08-21T05:24:51;4.20;;;1.70;;
72117;SDS011;59992;47.490;8.736;2022-08-21T05:27:42;3.80;;;1.60;;
72117;SDS011;59992;47.490;8.736;2022-08-21T05:30:33;6.40;;;2.10;;
72117;SDS011;59992;47.490;8.736;2022-08-21T05:33:24;7.30;;;2.00;;
72117;SDS011;59992;47.490;8.736;2022-08-21T05:36:16;6.00;;;2.10;;
72117;SDS011;59992;47.490;8.736;2022-08-21T05:39:07;4.30;;;2.00;;
72117;SDS011;59992;47.490;8.736;2022-08-21T05:41:58;4.20;;;1.70;;
72117;SDS011;59992;47.490;8.736;2022-08-21T05:44:49;4.60;;;1.90;;
72117;SDS011;59992;47.490;8.736;2022-08-21T05:47:39;5.70;;;2.80;;
72117;SDS011;59992;47.490;8.736;2022-08-21T05:50:30;4.50;;;2.50;;
72117;SDS011;59992;47.490;8.736;2022-08-21T05:53:21;4.70;;;2.00;;
72117;SDS011;59992;47.490;8.736;2022-08-21T05:56:13;6.10;;;2.30;;
72117;SDS011;59992;47.490;8.736;2022-08-21T05:59:05;7.70;;;2.80;;
72117;SDS011;59992;47.490;8.736;2022-08-21T06:01:55;5.60;;;2.60;;
72117;SDS011;59992;47.490;8.736;2022-08-21T06:04:46;6.40;;;2.90;;
72117;SDS011;59992;47.490;8.736;2022-08-21T06:07:37;5.60;;;2.40;;
72117;SDS011;59992;47.490;8.736;2022-08-21T06:10:28;7.00;;;2.70;;
72117;SDS011;59992;47.490;8.736;2022-08-21T06:13:19;6.20;;;2.50;;
72117;SDS011;59992;47.490;8.736;2022-08-21T06:16:11;8.10;;;3.00;;
72117;SDS011;59992;47.490;8.736;2022-08-21T06:19:04;8.30;;;2.80;;
72117;SDS011;59992;47.490;8.736;2022-08-21T06:21:55;6.40;;;2.90;;
72117;SDS011;59992;47.490;8.736;2022-08-21T06:24:45;5.90;;;2.80;;
72117;SDS011;59992;47.490;8.736;2022-08-21T06:27:36;7.10;;;3.00;;
72117;SDS011;59992;47.490;8.736;2022-08-21T06:30:27;7.30;;;3.00;;
72117;SDS011;59992;47.490;8.736;2022-08-21T06:33:18;6.90;;;3.00;;
72117;SDS011;59992;47.490;8.736;2022-08-21T06:36:09;10.60;;;3.30;;
72117;SDS011;59992;47.490;8.736;2022-08-21T06:38:59;6.40;;;3.30;;
72117;SDS011;59992;47.490;8.736;2022-08-21T06:41:50;6.20;;;3.70;;
72117;SDS011;59992;47.490;8.736;2022-08-21T06:44:42;7.90;;;4.00;;
72117;SDS011;59992;47.490;8.736;2022-08-21T06:47:33;6.40;;;3.50;;
72117;SDS011;59992;47.490;8.736;2022-08-21T06:50:24;5.30;;;3.00;;
72117;SDS011;59992;47.490;8.736;2022-08-21T06:53:17;6.10;;;3.30;;
72117;SDS011;59992;47.490;8.736;2022-08-21T06:56:09;5.80;;;2.80;;
72117;SDS011;59992;47.490;8.736;2022-08-21T06:58:59;4.70;;;2.70;;
72117;SDS011;59992;47.490;8.736;2022-08-21T07:01:50;5.20;;;3.00;;
72117;SDS011;59992;47.490;8.736;2022-08-21T07:04:41;5.40;;;3.00;;
72117;SDS011;59992;47.490;8.736;2022-08-21T07:07:32;5.10;;;3.00;;
72117;SDS011;59992;47.490;8.736;2022-08-21T07:10:22;5.80;;;3.00;;
72117;SDS011;59992;47.490;8.736;2022-08-21T07:13:13;5.30;;;3.00;;
72117;SDS011;59992;47.490;8.736;2022-08-21T07:16:05;4.90;;;2.80;;
72117;SDS011;59992;47.490;8.736;2022-08-21T07:18:55;6.90;;;3.10;;
72117;SDS011;59992;47.490;8.736;2022-08-21T07:21:46;4.50;;;2.80;;
72117;SDS011;59992;47.490;8.736;2022-08-21T07:24:36;3.40;;;2.40;;
72117;SDS011;59992;47.490;8.736;2022-08-21T07:27:27;7.80;;;2.60;;
72117;SDS011;59992;47.490;8.736;2022-08-21T07:30:19;4.40;;;2.70;;
72117;SDS011;59992;47.490;8.736;2022-08-21T07:33:09;3.90;;;2.30;;
72117;SDS011;59992;47.490;8.736;2022-08-21T07:36:00;4.30;;;2.50;;
72117;SDS011;59992;47.490;8.736;2022-08-21T07:38:51;3.70;;;2.40;;
72117;SDS011;59992;47.490;8.736;2022-08-21T07:41:42;3.20;;;2.40;;
72117;SDS011;59992;47.490;8.736;2022-08-21T07:44:33;3.60;;;2.10;;
72117;SDS011;59992;47.490;8.736;2022-08-21T07:47:24;4.10;;;2.10;;
72117;SDS011;59992;47.490;8.736;2022-08-21T07:50:15;2.50;;;1.70;;
72117;SDS011;59992;47.490;8.736;2022-08-21T07:53:06;2.40;;;1.80;;
72117;SDS011;59992;47.490;8.736;2022-08-21T07:55:58;3.40;;;1.60;;
72117;SDS011;59992;47.490;8.736;2022-08-21T07:58:50;1.90;;;1.60;;
72117;SDS011;59992;47.490;8.736;2022-08-21T08:01:43;3.90;;;1.70;;
72117;SDS011;59992;47.490;8.736;2022-08-21T08:04:34;4.40;;;1.90;;
72117;SDS011;59992;47.490;8.736;2022-08-21T08:07:25;2.10;;;1.40;;
72117;SDS011;59992;47.490;8.736;2022-08-21T08:10:25;3.20;;;1.70;;
72117;SDS011;59992;47.490;8.736;2022-08-21T08:13:16;2.20;;;1.50;;
72117;SDS011;59992;47.490;8.736;2022-08-21T08:16:07;2.80;;;1.50;;
72117;SDS011;59992;47.490;8.736;2022-08-21T08:18:57;1.60;;;1.20;;
72117;SDS011;59992;47.490;8.736;2022-08-21T08:21:48;2.30;;;1.10;;
72117;SDS011;59992;47.490;8.736;2022-08-21T08:24:41;2.00;;;1.00;;
72117;SDS011;59992;47.490;8.736;2022-08-21T08:27:32;1.40;;;1.10;;
72117;SDS011;59992;47.490;8.736;2022-08-21T08:30:22;1.60;;;1.40;;
72117;SDS011;59992;47.490;8.736;2022-08-21T08:33:15;3.40;;;1.70;;
72117;SDS011;59992;47.490;8.736;2022-08-21T08:36:11;2.50;;;1.70;;
72117;SDS011;59992;47.490;8.736;2022-08-21T08:39:04;2.90;;;1.80;;
72117;SDS011;59992;47.490;8.736;2022-08-21T08:41:58;3.00;;;2.00;;
72117;SDS011;59992;47.490;8.736;2022-08-21T08:44:55;2.80;;;1.90;;
72117;SDS011;59992;47.490;8.736;2022-08-21T08:47:50;2.60;;;1.70;;
72117;SDS011;59992;47.490;8.736;2022-08-21T08:50:47;2.80;;;1.90;;
72117;SDS011;59992;47.490;8.736;2022-08-21T08:53:46;2.50;;;1.90;;
72117;SDS011;59992;47.490;8.736;2022-08-21T08:56:43;2.90;;;1.70;;
72117;SDS011;59992;47.490;8.736;2022-08-21T08:59:36;3.30;;;1.90;;
72117;SDS011;59992;47.490;8.736;2022-08-21T09:02:31;2.80;;;2.10;;
72117;SDS011;59992;47.490;8.736;2022-08-21T09:05:28;3.10;;;1.80;;
72117;SDS011;59992;47.490;8.736;2022-08-21T09:08:40;4.30;;;1.80;;
72117;SDS011;59992;47.490;8.736;2022-08-21T09:11:41;2.30;;;1.60;;
72117;SDS011;59992;47.490;8.736;2022-08-21T09:14:57;4.40;;;1.90;;
72117;SDS011;59992;47.490;8.736;2022-08-21T09:17:59;2.80;;;1.70;;
72117;SDS011;59992;47.490;8.736;2022-08-21T09:21:18;3.80;;;1.90;;
72117;SDS011;59992;47.490;8.736;2022-08-21T09:24:32;6.30;;;1.60;;
72117;SDS011;59992;47.490;8.736;2022-08-21T09:27:29;3.40;;;1.90;;
72117;SDS011;59992;47.490;8.736;2022-08-21T09:30:23;3.30;;;1.80;;
72117;SDS011;59992;47.490;8.736;2022-08-21T09:33:16;4.70;;;2.20;;
72117;SDS011;59992;47.490;8.736;2022-08-21T09:36:08;3.40;;;1.80;;
72117;SDS011;59992;47.490;8.736;2022-08-21T09:38:58;4.00;;;2.00;;
72117;SDS011;59992;47.490;8.736;2022-08-21T09:41:54;2.40;;;1.50;;
72117;SDS011;59992;47.490;8.736;2022-08-21T09:44:46;4.90;;;2.00;;
72117;SDS011;59992;47.490;8.736;2022-08-21T09:47:37;3.70;;;1.80;;
72117;SDS011;59992;47.490;8.736;2022-08-21T09:50:27;3.30;;;1.90;;
72117;SDS011;59992;47.490;8.736;2022-08-21T09:53:19;3.60;;;1.80;;
72117;SDS011;59992;47.490;8.736;2022-08-21T09:56:29;3.90;;;2.00;;
72117;SDS011;59992;47.490;8.736;2022-08-21T09:59:46;4.20;;;2.00;;
72117;SDS011;59992;47.490;8.736;2022-08-21T10:02:36;4.40;;;2.20;;
72117;SDS011;59992;47.490;8.736;2022-08-21T10:05:27;4.90;;;1.90;;
72117;SDS011;59992;47.490;8.736;2022-08-21T10:08:18;4.40;;;1.80;;
72117;SDS011;59992;47.490;8.736;2022-08-21T10:11:11;5.10;;;1.90;;
72117;SDS011;59992;47.490;8.736;2022-08-21T10:14:07;4.40;;;1.60;;
72117;SDS011;59992;47.490;8.736;2022-08-21T10:17:08;4.50;;;2.00;;
72117;SDS011;59992;47.490;8.736;2022-08-21T10:20:07;5.40;;;2.20;;
72117;SDS011;59992;47.490;8.736;2022-08-21T10:23:06;4.70;;;2.10;;
72117;SDS011;59992;47.490;8.736;2022-08-21T10:26:20;4.40;;;1.80;;
72117;SDS011;59992;47.490;8.736;2022-08-21T10:29:23;4.20;;;1.80;;
72117;SDS011;59992;47.490;8.736;2022-08-21T10:32:32;4.80;;;1.80;;
72117;SDS011;59992;47.490;8.736;2022-08-21T10:35:35;3.60;;;1.60;;
72117;SDS011;59992;47.490;8.736;2022-08-21T10:38:40;5.10;;;1.50;;
72117;SDS011;59992;47.490;8.736;2022-08-21T10:41:45;2.90;;;1.50;;
72117;SDS011;59992;47.490;8.736;2022-08-21T10:44:54;3.30;;;1.70;;
72117;SDS011;59992;47.490;8.736;2022-08-21T10:47:57;4.50;;;1.70;;
72117;SDS011;59992;47.490;8.736;2022-08-21T10:50:55;4.60;;;1.90;;
72117;SDS011;59992;47.490;8.736;2022-08-21T10:53:56;4.10;;;1.70;;
72117;SDS011;59992;47.490;8.736;2022-08-21T10:56:56;6.00;;;2.00;;
72117;SDS011;59992;47.490;8.736;2022-08-21T10:59:53;4.10;;;1.80;;
72117;SDS011;59992;47.490;8.736;2022-08-21T11:02:51;4.30;;;1.50;;
72117;SDS011;59992;47.490;8.736;2022-08-21T11:05:47;3.20;;;1.70;;
72117;SDS011;59992;47.490;8.736;2022-08-21T11:08:41;3.80;;;1.60;;
72117;SDS011;59992;47.490;8.736;2022-08-21T11:11:36;5.20;;;1.90;;
72117;SDS011;59992;47.490;8.736;2022-08-21T11:14:36;4.10;;;1.60;;
72117;SDS011;59992;47.490;8.736;2022-08-21T11:17:38;4.40;;;1.50;;
72117;SDS011;59992;47.490;8.736;2022-08-21T11:20:34;4.70;;;1.90;;
72117;SDS011;59992;47.490;8.736;2022-08-21T11:23:36;3.70;;;1.40;;
72117;SDS011;59992;47.490;8.736;2022-08-21T11:26:34;3.40;;;1.40;;
72117;SDS011;59992;47.490;8.736;2022-08-21T11:29:29;4.30;;;1.40;;
72117;SDS011;59992;47.490;8.736;2022-08-21T11:32:42;3.50;;;1.40;;
72117;SDS011;59992;47.490;8.736;2022-08-21T11:35:43;3.90;;;1.30;;
72117;SDS011;59992;47.490;8.736;2022-08-21T11:38:41;3.50;;;1.40;;
72117;SDS011;59992;47.490;8.736;2022-08-21T11:41:36;3.90;;;1.40;;
72117;SDS011;59992;47.490;8.736;2022-08-21T11:44:31;3.50;;;1.50;;
72117;SDS011;59992;47.490;8.736;2022-08-21T11:47:37;3.00;;;1.30;;
72117;SDS011;59992;47.490;8.736;2022-08-21T11:50:37;4.80;;;1.70;;
72117;SDS011;59992;47.490;8.736;2022-08-21T11:53:32;5.10;;;1.20;;
72117;SDS011;59992;47.490;8.736;2022-08-21T11:56:28;3.00;;;1.00;;
72117;SDS011;59992;47.490;8.736;2022-08-21T11:59:26;2.30;;;1.10;;
72117;SDS011;59992;47.490;8.736;2022-08-21T12:02:29;2.60;;;1.10;;
72117;SDS011;59992;47.490;8.736;2022-08-21T12:05:25;1.50;;;1.00;;
72117;SDS011;59992;47.490;8.736;2022-08-21T12:08:28;1.90;;;0.90;;
72117;SDS011;59992;47.490;8.736;2022-08-21T12:11:26;4.70;;;1.30;;
72117;SDS011;59992;47.490;8.736;2022-08-21T12:14:17;2.20;;;1.00;;
72117;SDS011;59992;47.490;8.736;2022-08-21T12:17:16;1.90;;;0.70;;
72117;SDS011;59992;47.490;8.736;2022-08-21T12:20:17;2.60;;;0.80;;
72117;SDS011;59992;47.490;8.736;2022-08-21T12:26:35;4.70;;;1.10;;
72117;SDS011;59992;47.490;8.736;2022-08-21T12:29:37;2.10;;;1.20;;
72117;SDS011;59992;47.490;8.736;2022-08-21T12:32:43;1.90;;;0.90;;
72117;SDS011;59992;47.490;8.736;2022-08-21T12:35:37;1.40;;;0.90;;
72117;SDS011;59992;47.490;8.736;2022-08-21T12:38:47;3.60;;;1.20;;
72117;SDS011;59992;47.490;8.736;2022-08-21T12:41:53;2.10;;;1.20;;
72117;SDS011;59992;47.490;8.736;2022-08-21T12:44:49;3.70;;;1.10;;
72117;SDS011;59992;47.490;8.736;2022-08-21T12:47:46;2.10;;;0.90;;
72117;SDS011;59992;47.490;8.736;2022-08-21T12:50:42;3.30;;;0.80;;
72117;SDS011;59992;47.490;8.736;2022-08-21T12:53:42;2.10;;;1.00;;
72117;SDS011;59992;47.490;8.736;2022-08-21T12:56:36;2.70;;;1.00;;
72117;SDS011;59992;47.490;8.736;2022-08-21T12:59:27;3.80;;;1.20;;
72117;SDS011;59992;47.490;8.736;2022-08-21T13:02:21;2.80;;;1.10;;
72117;SDS011;59992;47.490;8.736;2022-08-21T13:05:24;2.60;;;0.90;;
72117;SDS011;59992;47.490;8.736;2022-08-21T13:08:25;3.10;;;1.10;;
72117;SDS011;59992;47.490;8.736;2022-08-21T13:11:18;3.20;;;1.10;;
72117;SDS011;59992;47.490;8.736;2022-08-21T13:14:13;2.00;;;0.80;;
72117;SDS011;59992;47.490;8.736;2022-08-21T13:17:10;3.10;;;0.90;;
72117;SDS011;59992;47.490;8.736;2022-08-21T13:20:06;1.90;;;0.90;;
72117;SDS011;59992;47.490;8.736;2022-08-21T13:23:21;1.80;;;1.00;;
72117;SDS011;59992;47.490;8.736;2022-08-21T13:26:16;2.60;;;1.00;;
72117;SDS011;59992;47.490;8.736;2022-08-21T13:29:15;2.10;;;0.90;;
72117;SDS011;59992;47.490;8.736;2022-08-21T13:32:16;2.10;;;1.00;;
72117;SDS011;59992;47.490;8.736;2022-08-21T13:35:12;1.50;;;0.80;;
72117;SDS011;59992;47.490;8.736;2022-08-21T13:38:05;2.60;;;1.10;;
72117;SDS011;59992;47.490;8.736;2022-08-21T13:40:59;2.90;;;1.00;;
72117;SDS011;59992;47.490;8.736;2022-08-21T13:43:57;2.50;;;1.00;;
72117;SDS011;59992;47.490;8.736;2022-08-21T13:46:50;2.00;;;0.70;;
72117;SDS011;59992;47.490;8.736;2022-08-21T13:49:43;2.30;;;0.80;;
72117;SDS011;59992;47.490;8.736;2022-08-21T13:52:44;2.50;;;1.10;;
72117;SDS011;59992;47.490;8.736;2022-08-21T13:55:39;2.20;;;0.90;;
72117;SDS011;59992;47.490;8.736;2022-08-21T13:58:33;1.90;;;0.90;;
72117;SDS011;59992;47.490;8.736;2022-08-21T14:01:35;2.80;;;0.90;;
72117;SDS011;59992;47.490;8.736;2022-08-21T14:04:36;1.40;;;0.80;;
72117;SDS011;59992;47.490;8.736;2022-08-21T14:07:33;2.70;;;0.90;;
72117;SDS011;59992;47.490;8.736;2022-08-21T14:10:27;2.20;;;0.80;;
72117;SDS011;59992;47.490;8.736;2022-08-21T14:13:24;2.10;;;1.00;;
72117;SDS011;59992;47.490;8.736;2022-08-21T14:16:23;2.20;;;1.10;;
72117;SDS011;59992;47.490;8.736;2022-08-21T14:19:19;2.10;;;0.90;;
72117;SDS011;59992;47.490;8.736;2022-08-21T14:22:31;3.90;;;0.70;;
72117;SDS011;59992;47.490;8.736;2022-08-21T14:25:30;3.40;;;0.80;;
72117;SDS011;59992;47.490;8.736;2022-08-21T14:28:28;1.00;;;0.60;;
72117;SDS011;59992;47.490;8.736;2022-08-21T14:31:21;2.80;;;0.80;;
72117;SDS011;59992;47.490;8.736;2022-08-21T14:34:17;1.30;;;0.70;;
72117;SDS011;59992;47.490;8.736;2022-08-21T14:37:18;1.60;;;0.70;;
72117;SDS011;59992;47.490;8.736;2022-08-21T14:40:10;2.60;;;0.70;;
72117;SDS011;59992;47.490;8.736;2022-08-21T14:43:02;1.00;;;0.60;;
72117;SDS011;59992;47.490;8.736;2022-08-21T14:45:52;1.60;;;0.60;;
72117;SDS011;59992;47.490;8.736;2022-08-21T14:48:44;2.20;;;0.60;;
72117;SDS011;59992;47.490;8.736;2022-08-21T14:51:36;2.60;;;0.60;;
72117;SDS011;59992;47.490;8.736;2022-08-21T14:54:28;1.90;;;0.80;;
72117;SDS011;59992;47.490;8.736;2022-08-21T14:57:21;1.00;;;0.60;;
72117;SDS011;59992;47.490;8.736;2022-08-21T15:00:15;2.70;;;0.90;;
72117;SDS011;59992;47.490;8.736;2022-08-21T15:03:10;1.20;;;0.60;;
72117;SDS011;59992;47.490;8.736;2022-08-21T15:06:01;3.40;;;0.90;;
72117;SDS011;59992;47.490;8.736;2022-08-21T15:08:54;0.90;;;0.60;;
72117;SDS011;59992;47.490;8.736;2022-08-21T15:11:44;1.70;;;0.80;;
72117;SDS011;59992;47.490;8.736;2022-08-21T15:14:36;0.90;;;0.60;;
72117;SDS011;59992;47.490;8.736;2022-08-21T15:17:28;2.80;;;0.60;;
72117;SDS011;59992;47.490;8.736;2022-08-21T15:20:19;1.30;;;0.70;;
72117;SDS011;59992;47.490;8.736;2022-08-21T15:23:10;1.10;;;0.60;;
72117;SDS011;59992;47.490;8.736;2022-08-21T15:26:01;1.20;;;0.60;;
72117;SDS011;59992;47.490;8.736;2022-08-21T15:28:52;2.50;;;0.70;;
72117;SDS011;59992;47.490;8.736;2022-08-21T15:31:50;2.60;;;0.60;;
72117;SDS011;59992;47.490;8.736;2022-08-21T15:34:42;1.50;;;0.70;;
72117;SDS011;59992;47.490;8.736;2022-08-21T15:37:32;1.40;;;0.50;;
72117;SDS011;59992;47.490;8.736;2022-08-21T15:40:24;1.90;;;0.60;;
72117;SDS011;59992;47.490;8.736;2022-08-21T15:43:18;2.30;;;0.90;;
72117;SDS011;59992;47.490;8.736;2022-08-21T15:46:15;3.40;;;0.90;;
72117;SDS011;59992;47.490;8.736;2022-08-21T15:49:08;1.70;;;0.60;;
72117;SDS011;59992;47.490;8.736;2022-08-21T15:51:59;1.30;;;0.60;;
72117;SDS011;59992;47.490;8.736;2022-08-21T15:54:51;4.30;;;1.10;;
72117;SDS011;59992;47.490;8.736;2022-08-21T15:57:44;1.40;;;0.70;;
72117;SDS011;59992;47.490;8.736;2022-08-21T16:00:43;1.20;;;0.60;;
72117;SDS011;59992;47.490;8.736;2022-08-21T16:03:34;2.50;;;0.80;;
72117;SDS011;59992;47.490;8.736;2022-08-21T16:06:25;1.90;;;0.90;;
72117;SDS011;59992;47.490;8.736;2022-08-21T16:09:15;1.40;;;0.70;;
72117;SDS011;59992;47.490;8.736;2022-08-21T16:12:06;2.20;;;0.80;;
72117;SDS011;59992;47.490;8.736;2022-08-21T16:14:58;2.00;;;0.60;;
72117;SDS011;59992;47.490;8.736;2022-08-21T16:17:51;1.40;;;0.80;;
72117;SDS011;59992;47.490;8.736;2022-08-21T16:20:43;1.80;;;1.10;;
72117;SDS011;59992;47.490;8.736;2022-08-21T16:23:34;3.60;;;1.00;;
72117;SDS011;59992;47.490;8.736;2022-08-21T16:26:25;1.40;;;0.70;;
72117;SDS011;59992;47.490;8.736;2022-08-21T16:29:16;1.20;;;0.70;;
72117;SDS011;59992;47.490;8.736;2022-08-21T16:32:07;2.80;;;0.70;;
72117;SDS011;59992;47.490;8.736;2022-08-21T16:34:58;3.90;;;2.00;;
72117;SDS011;59992;47.490;8.736;2022-08-21T16:37:51;2.80;;;1.10;;
72117;SDS011;59992;47.490;8.736;2022-08-21T16:40:41;1.90;;;0.80;;
72117;SDS011;59992;47.490;8.736;2022-08-21T16:43:32;2.00;;;0.80;;
72117;SDS011;59992;47.490;8.736;2022-08-21T16:46:31;1.20;;;0.50;;
72117;SDS011;59992;47.490;8.736;2022-08-21T16:49:24;3.70;;;0.70;;
72117;SDS011;59992;47.490;8.736;2022-08-21T16:52:15;2.30;;;0.80;;
72117;SDS011;59992;47.490;8.736;2022-08-21T16:55:06;2.00;;;0.70;;
72117;SDS011;59992;47.490;8.736;2022-08-21T16:57:57;2.80;;;1.30;;
72117;SDS011;59992;47.490;8.736;2022-08-21T17:00:50;2.40;;;0.70;;
72117;SDS011;59992;47.490;8.736;2022-08-21T17:03:42;2.20;;;0.60;;
72117;SDS011;59992;47.490;8.736;2022-08-21T17:06:34;1.20;;;0.70;;
72117;SDS011;59992;47.490;8.736;2022-08-21T17:09:25;1.40;;;0.60;;
72117;SDS011;59992;47.490;8.736;2022-08-21T17:12:16;3.40;;;0.90;;
72117;SDS011;59992;47.490;8.736;2022-08-21T17:15:09;3.50;;;0.70;;
72117;SDS011;59992;47.490;8.736;2022-08-21T17:18:07;2.60;;;0.70;;
72117;SDS011;59992;47.490;8.736;2022-08-21T17:21:00;2.10;;;0.70;;
72117;SDS011;59992;47.490;8.736;2022-08-21T17:23:50;2.40;;;0.70;;
72117;SDS011;59992;47.490;8.736;2022-08-21T17:26:41;1.30;;;0.60;;
72117;SDS011;59992;47.490;8.736;2022-08-21T17:29:34;2.80;;;0.70;;
72117;SDS011;59992;47.490;8.736;2022-08-21T17:32:26;1.40;;;0.70;;